createdAt,value
2022-08-11T00:02:01.183Z,5.63
2022-08-11T00:04:49.115Z,6.97
2022-08-11T00:07:31.109Z,9.23
2022-08-11T00:10:30.114Z,11.95
2022-08-11T00:13:17.134Z,10.50
2022-08-11T00:15:58.173Z,12.60
2022-08-11T00:18:48.121Z,7.72
2022-08-11T00:22:01.838Z,9.85
2022-08-11T00:24:31.120Z,7.18
2022-08-11T00:27:14.405Z,10.02
2022-08-11T00:30:02.142Z,9.38
2022-08-11T00:32:37.331Z,7.38
2022-08-11T00:35:51.209Z,10.77
2022-08-11T00:38:27.137Z,6.97
2022-08-11T00:41:21.117Z,8.15
2022-08-11T00:44:14.133Z,12.15
2022-08-11T00:46:48.195Z,6.30
2022-08-11T00:49:47.153Z,9.25
2022-08-11T00:52:31.184Z,7.20
2022-08-11T00:55:33.113Z,5.65
2022-08-11T00:58:10.213Z,8.75
2022-08-11T01:01:16.226Z,7.07
2022-08-11T01:03:50.276Z,8.15
2022-08-11T01:06:56.132Z,5.63
2022-08-11T01:09:39.205Z,6.80
2022-08-11T01:12:50.150Z,8.60
2022-08-11T01:15:31.121Z,7.85
2022-08-11T01:18:46.137Z,7.45
2022-08-11T01:21:39.196Z,6.78
2022-08-11T01:24:26.129Z,6.25
2022-08-11T01:27:19.092Z,8.13
2022-08-11T01:30:15.149Z,8.10
2022-08-11T01:32:59.147Z,9.40
2022-08-11T01:36:12.153Z,6.97
2022-08-11T01:39:02.150Z,11.23
2022-08-11T01:42:08.501Z,7.78
2022-08-11T01:45:15.133Z,5.47
2022-08-11T01:48:00.875Z,9.60
2022-08-11T01:50:50.151Z,7.05
2022-08-11T01:54:01.302Z,11.23
2022-08-11T01:57:03.186Z,10.63
2022-08-11T01:59:48.785Z,8.35
2022-08-11T02:03:00.155Z,10.82
2022-08-11T02:05:47.161Z,10.02
2022-08-11T02:08:54.305Z,11.73
2022-08-11T02:11:43.168Z,11.82
2022-08-11T02:14:53.657Z,33.92
2022-08-11T02:17:45.229Z,9.90
2022-08-11T02:20:49.178Z,8.10
2022-08-11T02:24:04.556Z,9.88
2022-08-11T02:26:53.152Z,7.70
2022-08-11T02:30:00.186Z,10.20
2022-08-11T02:32:55.533Z,13.10
2022-08-11T02:36:09.173Z,8.55
2022-08-11T02:38:52.285Z,12.20
2022-08-11T02:42:32.617Z,9.00
2022-08-11T02:45:30.575Z,7.40
2022-08-11T02:48:36.197Z,10.35
2022-08-11T02:51:27.174Z,6.88
2022-08-11T02:54:11.302Z,8.05
2022-08-11T02:56:51.187Z,8.43
2022-08-11T02:59:57.180Z,10.57
2022-08-11T03:02:37.865Z,10.73
2022-08-11T03:05:27.185Z,16.80
2022-08-11T03:08:11.184Z,12.00
2022-08-11T03:11:19.843Z,18.73
2022-08-11T03:14:31.211Z,12.80
2022-08-11T03:17:21.249Z,9.82
2022-08-11T03:22:57.245Z,10.70
2022-08-11T03:26:02.195Z,12.68
2022-08-11T03:28:46.273Z,12.48
2022-08-11T03:31:41.185Z,11.93
2022-08-11T03:34:28.289Z,9.77
2022-08-11T03:37:45.185Z,17.48
2022-08-11T03:40:45.209Z,17.95
2022-08-11T03:43:29.186Z,17.27
2022-08-11T03:46:10.278Z,13.50
2022-08-11T03:49:01.216Z,8.65
2022-08-11T03:52:00.602Z,11.02
2022-08-11T03:54:47.207Z,9.68
2022-08-11T03:57:34.994Z,10.60
2022-08-11T04:00:41.211Z,10.32
2022-08-11T04:03:31.491Z,9.73
2022-08-11T04:06:18.218Z,9.80
2022-08-11T04:08:59.308Z,11.77
2022-08-11T04:11:57.209Z,11.23
2022-08-11T04:15:11.813Z,9.40
2022-08-11T04:17:59.223Z,12.93
2022-08-11T04:20:58.343Z,5.90
2022-08-11T04:24:38.065Z,9.50
2022-08-11T04:27:38.982Z,12.35
2022-08-11T04:30:35.207Z,9.35
2022-08-11T04:33:41.447Z,9.75
2022-08-11T04:36:53.222Z,11.85
2022-08-11T04:39:55.369Z,9.63
2022-08-11T04:43:00.227Z,7.00
2022-08-11T04:46:27.353Z,11.32
2022-08-11T04:49:36.214Z,12.90
2022-08-11T04:53:06.244Z,9.80
2022-08-11T04:56:28.210Z,5.68
2022-08-11T04:59:48.555Z,7.38
2022-08-11T05:02:54.221Z,12.10
2022-08-11T05:05:56.410Z,11.15
2022-08-11T05:08:56.240Z,12.77
2022-08-11T05:11:48.317Z,7.47
2022-08-11T05:15:07.248Z,8.63
2022-08-11T05:18:14.238Z,7.13
2022-08-11T05:21:11.466Z,10.25
2022-08-11T05:24:23.272Z,7.63
2022-08-11T05:27:16.439Z,7.93
2022-08-11T05:30:36.258Z,10.40
2022-08-11T05:33:49.201Z,5.05
2022-08-11T05:37:11.572Z,7.80
2022-08-11T05:40:13.834Z,6.55
2022-08-11T05:46:30.243Z,10.98
2022-08-11T05:49:23.186Z,6.80
2022-08-11T05:52:38.326Z,7.35
2022-08-11T05:55:36.173Z,10.55
2022-08-11T05:58:47.259Z,10.40
2022-08-11T06:01:28.387Z,7.88
2022-08-11T06:04:30.278Z,14.60
2022-08-11T06:07:17.695Z,14.82
2022-08-11T06:10:06.272Z,12.45
2022-08-11T06:12:44.515Z,7.40
2022-08-11T06:15:32.290Z,9.68
2022-08-11T06:18:07.335Z,6.10
2022-08-11T06:21:01.259Z,7.82
2022-08-11T06:23:40.603Z,5.57
2022-08-11T06:26:28.253Z,3.75
2022-08-11T06:29:06.677Z,5.60
2022-08-11T06:32:04.276Z,4.28
2022-08-11T06:35:11.376Z,3.95
2022-08-11T06:38:44.287Z,5.78
2022-08-11T06:41:38.389Z,4.40
2022-08-11T06:44:21.274Z,4.82
2022-08-11T06:47:02.354Z,3.22
2022-08-11T06:50:07.266Z,6.47
2022-08-11T06:52:48.570Z,6.85
2022-08-11T06:55:58.786Z,6.45
2022-08-11T06:59:04.767Z,4.25
2022-08-11T07:02:25.883Z,6.20
2022-08-11T07:05:09.519Z,4.18
2022-08-11T07:08:35.735Z,4.45
2022-08-11T07:11:35.913Z,5.80
2022-08-11T07:14:38.589Z,6.22
2022-08-11T07:17:23.359Z,4.57
2022-08-11T07:20:25.295Z,4.10
2022-08-11T07:23:28.225Z,7.88
2022-08-11T07:26:28.310Z,5.03
2022-08-11T07:29:10.386Z,6.57
2022-08-11T07:31:57.293Z,7.82
2022-08-11T07:34:47.382Z,5.70
2022-08-11T07:37:29.306Z,3.67
2022-08-11T07:40:10.396Z,3.15
2022-08-11T07:42:53.301Z,8.27
2022-08-11T07:45:59.306Z,5.28
2022-08-11T07:49:00.310Z,4.07
2022-08-11T07:52:06.298Z,4.72
2022-08-11T07:54:51.170Z,4.53
2022-08-11T07:58:13.920Z,4.63
2022-08-11T08:01:22.387Z,5.25
2022-08-11T08:04:30.311Z,3.50
2022-08-11T08:07:31.337Z,8.57
2022-08-11T08:10:36.110Z,6.95
2022-08-11T08:13:35.331Z,4.25
2022-08-11T08:16:41.309Z,4.18
2022-08-11T08:19:19.027Z,3.90
2022-08-11T08:22:11.070Z,3.17
2022-08-11T08:25:00.528Z,6.57
2022-08-11T08:27:50.341Z,3.75
2022-08-11T08:30:57.329Z,3.20
2022-08-11T08:33:48.431Z,6.07
2022-08-11T08:39:10.390Z,3.25
2022-08-11T08:41:45.411Z,3.97
2022-08-11T08:44:39.074Z,3.63
2022-08-11T08:47:41.700Z,4.55
2022-08-11T08:50:57.334Z,9.25
2022-08-11T08:53:52.627Z,4.45
2022-08-11T08:56:37.092Z,3.95
2022-08-11T08:59:24.341Z,4.00
2022-08-11T09:02:19.327Z,3.45
2022-08-11T09:05:24.361Z,7.18
2022-08-11T09:08:05.466Z,4.07
2022-08-11T09:10:46.366Z,6.47
2022-08-11T09:13:27.629Z,4.45
2022-08-11T09:16:08.338Z,5.55
2022-08-11T09:18:56.361Z,4.25
2022-08-11T09:21:45.400Z,4.25
2022-08-11T09:24:55.362Z,4.78
2022-08-11T09:27:36.372Z,3.30
2022-08-11T09:30:25.361Z,4.47
2022-08-11T09:33:15.378Z,7.53
2022-08-11T09:36:26.368Z,3.00
2022-08-11T09:39:52.452Z,4.50
2022-08-11T09:42:58.374Z,4.30
2022-08-11T09:45:46.369Z,4.40
2022-08-11T09:48:37.365Z,4.80
2022-08-11T09:51:12.572Z,4.88
2022-08-11T09:54:03.007Z,4.18
2022-08-11T09:56:56.877Z,8.48
2022-08-11T09:59:44.395Z,3.72
2022-08-11T10:02:25.389Z,8.13
2022-08-11T10:05:41.729Z,6.57
2022-08-11T10:08:25.363Z,4.00
2022-08-11T10:11:06.480Z,8.00
2022-08-11T10:14:33.713Z,4.70
2022-08-11T10:17:22.394Z,5.80
2022-08-11T10:20:05.340Z,5.72
2022-08-11T10:23:12.427Z,6.60
2022-08-11T10:26:05.597Z,4.80
2022-08-11T10:29:11.904Z,3.00
2022-08-11T10:32:12.397Z,5.30
2022-08-11T10:35:02.395Z,5.43
2022-08-11T10:38:06.568Z,4.35
2022-08-11T10:41:14.392Z,3.63
2022-08-11T10:44:02.951Z,4.00
2022-08-11T10:47:10.387Z,9.90
2022-08-11T10:49:44.462Z,7.28
2022-08-11T10:52:50.376Z,3.58
2022-08-11T10:55:50.442Z,4.90
2022-08-11T10:58:58.547Z,9.13
2022-08-11T11:01:44.459Z,4.35
2022-08-11T11:04:33.957Z,3.92
2022-08-11T11:07:30.396Z,3.72
2022-08-11T11:10:20.407Z,5.23
2022-08-11T11:13:15.124Z,6.07
2022-08-11T11:16:21.455Z,3.00
2022-08-11T11:19:00.871Z,3.00
2022-08-11T11:21:50.426Z,4.65
2022-08-11T11:24:41.284Z,2.80
2022-08-11T11:27:46.659Z,4.57
2022-08-11T11:30:21.724Z,4.55
2022-08-11T11:33:27.407Z,3.13
2022-08-11T11:36:10.464Z,2.40
2022-08-11T11:38:58.424Z,2.83
2022-08-11T11:41:32.646Z,5.97
2022-08-11T11:44:20.421Z,4.43
2022-08-11T11:46:56.602Z,4.50
2022-08-11T11:49:50.419Z,3.22
2022-08-11T11:52:24.737Z,4.60
2022-08-11T11:55:12.509Z,2.95
2022-08-11T11:58:06.874Z,5.18
2022-08-11T12:01:12.427Z,7.72
2022-08-11T12:03:54.485Z,7.53
2022-08-11T12:06:35.535Z,6.88
2022-08-11T12:09:22.721Z,4.43
2022-08-11T12:12:21.023Z,4.00
2022-08-11T12:15:02.431Z,2.97
2022-08-11T12:17:43.499Z,2.00
2022-08-11T12:20:31.933Z,6.03
2022-08-11T12:23:33.131Z,2.50
2022-08-11T12:26:32.462Z,2.17
2022-08-11T12:29:13.511Z,3.33
2022-08-11T12:31:54.434Z,2.75
2022-08-11T12:34:35.569Z,2.92
2022-08-11T12:37:20.469Z,2.40
2022-08-11T12:40:43.054Z,1.90
2022-08-11T12:43:45.441Z,1.80
2022-08-11T12:46:51.482Z,3.20
2022-08-11T12:49:45.636Z,8.20
2022-08-11T12:52:40.481Z,2.78
2022-08-11T12:55:37.236Z,2.30
2022-08-11T12:58:27.475Z,1.73
2022-08-11T13:01:20.009Z,2.40
2022-08-11T13:04:25.444Z,6.03
2022-08-11T13:06:59.693Z,3.60
2022-08-11T13:09:47.447Z,5.85
2022-08-11T13:12:41.694Z,3.65
2022-08-11T13:15:31.452Z,7.82
2022-08-11T13:18:08.122Z,7.20
2022-08-11T13:20:55.463Z,1.90
2022-08-11T13:23:29.685Z,1.90
2022-08-11T13:26:19.960Z,1.60
2022-08-11T13:28:56.617Z,3.42
2022-08-11T13:31:44.500Z,1.85
2022-08-11T13:34:19.947Z,3.28
2022-08-11T13:37:11.469Z,5.93
2022-08-11T13:39:53.541Z,2.38
2022-08-11T13:42:42.471Z,1.63
2022-08-11T13:45:16.990Z,2.22
2022-08-11T13:48:04.476Z,7.72
2022-08-11T13:50:57.889Z,5.38
2022-08-11T13:53:45.489Z,9.25
2022-08-11T13:56:20.032Z,3.50
2022-08-11T13:59:08.476Z,2.45
2022-08-11T14:02:19.680Z,1.80
2022-08-11T14:05:08.490Z,4.72
2022-08-11T14:07:46.300Z,5.13
2022-08-11T14:10:37.495Z,4.75
2022-08-11T14:13:42.491Z,10.93
2022-08-11T14:16:38.505Z,1.60
2022-08-11T14:19:20.510Z,8.50
2022-08-11T14:22:15.493Z,23.75
2022-08-11T14:24:56.508Z,6.15
2022-08-11T14:28:30.581Z,29.60
2022-08-11T14:31:01.162Z,38.28
2022-08-11T14:33:59.661Z,13.95
2022-08-11T14:36:44.505Z,10.18
2022-08-11T14:39:29.623Z,9.30
2022-08-11T14:42:31.494Z,2.03
2022-08-11T14:45:54.201Z,2.08
2022-08-11T14:48:33.813Z,2.20
2022-08-11T14:51:21.517Z,9.50
2022-08-11T14:54:19.347Z,4.00
2022-08-11T14:57:07.543Z,7.05
2022-08-11T14:59:49.518Z,5.82
2022-08-11T15:02:49.390Z,4.18
2022-08-11T15:05:31.538Z,2.20
2022-08-11T15:08:12.592Z,4.07
2022-08-11T15:10:53.548Z,3.40
2022-08-11T15:13:34.576Z,3.75
2022-08-11T15:16:33.534Z,2.45
2022-08-11T15:19:21.712Z,3.35
2022-08-11T15:22:33.522Z,3.78
2022-08-11T15:25:20.540Z,2.40
2022-08-11T15:28:20.264Z,2.45
2022-08-11T15:31:22.547Z,3.17
2022-08-11T15:34:27.170Z,1.90
2022-08-11T15:37:29.688Z,4.32
2022-08-11T15:40:35.192Z,2.92
2022-08-11T15:43:46.569Z,3.55
2022-08-11T15:46:34.656Z,1.95
2022-08-11T15:49:22.181Z,4.03
2022-08-11T15:52:10.629Z,3.83
2022-08-11T15:54:54.555Z,1.85
2022-08-11T15:57:59.980Z,5.53
2022-08-11T16:01:03.755Z,4.07
2022-08-11T16:04:14.563Z,1.73
2022-08-11T16:07:18.571Z,3.33
2022-08-11T16:10:18.821Z,1.80
2022-08-11T16:13:11.563Z,1.92
2022-08-11T16:16:15.821Z,1.92
2022-08-11T16:18:58.552Z,2.20
2022-08-11T16:21:44.027Z,1.80
2022-08-11T16:27:03.231Z,8.00
2022-08-11T16:27:34.618Z,7.13
2022-08-11T16:30:16.561Z,2.78
2022-08-11T16:33:48.646Z,2.42
2022-08-11T16:36:24.558Z,2.90
2022-08-11T16:39:13.624Z,1.92
2022-08-11T16:42:07.120Z,2.17
2022-08-11T16:45:12.566Z,10.38
2022-08-11T16:48:32.535Z,2.55
2022-08-11T16:50:55.566Z,2.42
2022-08-11T16:54:03.359Z,2.03
2022-08-11T16:56:47.581Z,3.17
2022-08-11T16:59:24.720Z,2.38
2022-08-11T17:02:15.563Z,8.23
2022-08-11T17:05:13.179Z,2.00
2022-08-11T17:08:19.599Z,4.85
2022-08-11T17:11:20.116Z,4.97
2022-08-11T17:14:11.602Z,5.43
2022-08-11T17:16:49.198Z,3.13
2022-08-11T17:20:41.398Z,2.03
2022-08-11T17:22:53.916Z,2.30
2022-08-11T17:26:03.190Z,2.10
2022-08-11T17:28:38.567Z,50.67
2022-08-11T17:31:46.582Z,17.70
2022-08-11T17:34:45.592Z,17.58
2022-08-11T17:37:27.664Z,34.13
2022-08-11T17:40:08.608Z,9.85
2022-08-11T17:43:10.596Z,9.73
2022-08-11T17:46:10.610Z,9.93
2022-08-11T17:48:51.658Z,12.63
2022-08-11T17:51:50.613Z,19.45
2022-08-11T17:54:57.606Z,46.90
2022-08-11T17:57:50.034Z,17.95
2022-08-11T18:00:38.606Z,9.15
2022-08-11T18:03:32.410Z,27.90
2022-08-11T18:06:21.626Z,27.25
2022-08-11T18:09:28.740Z,18.98
2022-08-11T18:12:35.621Z,10.52
2022-08-11T18:15:31.161Z,14.82
2022-08-11T18:18:38.633Z,95.63
2022-08-11T18:21:33.613Z,112.93
2022-08-11T18:24:41.615Z,95.95
2022-08-11T18:27:37.259Z,144.20
2022-08-11T18:30:42.632Z,16.58
2022-08-11T18:33:56.918Z,13.85
2022-08-11T18:37:03.617Z,15.70
2022-08-11T18:40:09.619Z,5.82
2022-08-11T18:43:16.599Z,10.43
2022-08-11T18:46:10.917Z,8.55
2022-08-11T18:49:22.634Z,13.20
2022-08-11T18:52:17.161Z,16.80
2022-08-11T18:55:24.612Z,20.15
2022-08-11T18:58:18.245Z,9.75
2022-08-11T19:01:27.680Z,14.77
2022-08-11T19:04:21.934Z,3.63
2022-08-11T19:07:29.642Z,9.02
2022-08-11T19:10:23.751Z,13.75
2022-08-11T19:13:30.648Z,18.70
2022-08-11T19:16:23.940Z,14.50
2022-08-11T19:19:30.638Z,10.32
2022-08-11T19:22:23.822Z,14.00
2022-08-11T19:25:30.650Z,14.57
2022-08-11T19:28:25.642Z,16.60
2022-08-11T19:31:33.672Z,15.90
2022-08-11T19:34:27.549Z,8.35
2022-08-11T19:37:34.642Z,8.35
2022-08-11T19:40:37.295Z,11.77
2022-08-11T19:43:43.649Z,13.15
2022-08-11T19:46:39.374Z,10.43
2022-08-11T19:49:38.681Z,12.27
2022-08-11T19:52:38.862Z,9.02
2022-08-11T19:55:33.682Z,9.98
2022-08-11T19:58:39.628Z,23.13
2022-08-11T20:01:38.706Z,16.98
2022-08-11T20:05:04.662Z,14.07
2022-08-11T20:07:57.791Z,16.40
2022-08-11T20:11:04.681Z,15.45
2022-08-11T20:14:05.650Z,8.50
2022-08-11T20:17:05.740Z,7.07
2022-08-11T20:20:06.665Z,11.00
2022-08-11T20:23:06.666Z,7.85
2022-08-11T20:29:08.366Z,9.02
2022-08-11T20:32:13.653Z,11.73
2022-08-11T20:35:13.704Z,12.63
2022-08-11T20:38:14.065Z,12.25
2022-08-11T20:41:13.668Z,10.95
2022-08-11T20:44:22.694Z,6.72
2022-08-11T20:47:22.688Z,10.20
2022-08-11T20:50:23.639Z,10.70
2022-08-11T20:53:28.675Z,6.28
2022-08-11T20:56:30.085Z,11.60
2022-08-11T20:59:38.328Z,8.27
2022-08-11T21:02:45.670Z,8.38
2022-08-11T21:06:09.125Z,11.85
2022-08-11T21:09:09.719Z,10.57
2022-08-11T21:12:02.943Z,7.32
2022-08-11T21:15:08.705Z,7.93
2022-08-11T21:18:28.419Z,8.30
2022-08-11T21:21:45.725Z,4.85
2022-08-11T21:24:48.155Z,11.95
2022-08-11T21:27:48.704Z,6.30
2022-08-11T21:30:48.853Z,6.78
2022-08-11T21:36:35.246Z,10.98
2022-08-11T21:39:41.746Z,5.85
2022-08-11T21:42:36.789Z,6.00
2022-08-11T21:45:43.688Z,7.93
2022-08-11T21:48:43.702Z,5.20
2022-08-11T21:51:44.463Z,6.55
2022-08-11T21:54:43.697Z,5.53
2022-08-11T21:57:47.915Z,7.10
2022-08-11T22:00:50.703Z,4.30
2022-08-11T22:03:50.623Z,8.80
2022-08-11T22:06:50.730Z,5.90
2022-08-11T22:09:50.797Z,5.63
2022-08-11T22:12:55.743Z,6.90
2022-08-11T22:15:48.585Z,7.90
2022-08-11T22:18:55.726Z,5.90
2022-08-11T22:22:02.523Z,5.32
2022-08-11T22:25:16.320Z,7.05
2022-08-11T22:28:17.323Z,7.00
2022-08-11T22:31:16.804Z,7.13
2022-08-11T22:34:15.857Z,5.95
2022-08-11T22:37:27.183Z,6.95
2022-08-11T22:40:27.552Z,5.95
2022-08-11T22:43:26.772Z,7.82
2022-08-11T22:46:25.662Z,6.10
2022-08-11T22:49:24.755Z,6.28
2022-08-11T22:52:24.766Z,11.93
2022-08-11T22:55:19.546Z,11.65
2022-08-11T22:58:26.786Z,4.97
2022-08-11T23:01:19.870Z,6.13
2022-08-11T23:04:26.785Z,9.35
2022-08-11T23:07:50.345Z,5.68
2022-08-11T23:10:49.787Z,4.00
2022-08-11T23:13:42.755Z,5.67
2022-08-11T23:16:49.767Z,6.05
2022-08-11T23:20:06.742Z,9.25
2022-08-11T23:23:09.750Z,4.18
2022-08-11T23:26:02.787Z,8.13
2022-08-11T23:29:08.751Z,7.43
2022-08-11T23:32:08.783Z,7.63
2022-08-11T23:35:40.193Z,9.32
2022-08-11T23:38:36.797Z,5.47
2022-08-11T23:41:42.772Z,4.30
2022-08-11T23:44:35.564Z,5.10
2022-08-11T23:47:50.924Z,6.47
2022-08-11T23:50:44.451Z,3.15
2022-08-11T23:53:50.787Z,5.10
2022-08-11T23:56:49.790Z,6.97
